Time;durP1;ratioP1;P1;durP2;ratioP2;P2;SDS_P1;SDS_P2;PMS_P1;PMS_P2;Temp;Humidity;BMP_temperature;BMP_pressure;BME280_temperature;BME280_humidity;BME280_pressure;Samples;Min_cycle;Max_cycle;Signal;HPM_P1;HPM_P2
2021/11/05 00:01:08;;;;;;;13.77;11.38;;;;;;;;;;5104195;28;20621;-86
2021/11/05 00:03:35;;;;;;;13.75;10.73;;;;;;;;;;5101169;28;21225;-87
2021/11/05 00:06:01;;;;;;;11.73;10.07;;;;;;;;;;5103646;28;20403;-87
2021/11/05 00:08:28;;;;;;;11.83;10.30;;;;;;;;;;5099886;28;20853;-87
2021/11/05 00:10:55;;;;;;;12.45;10.05;;;;;;;;;;5101875;28;20415;-87
2021/11/05 00:13:23;;;;;;;12.00;10.45;;;;;;;;;;5105130;28;20394;-88
2021/11/05 00:15:50;;;;;;;13.07;10.25;;;;;;;;;;5105896;28;20448;-87
2021/11/05 00:18:17;;;;;;;12.18;10.18;;;;;;;;;;5103100;28;20414;-87
2021/11/05 00:20:44;;;;;;;11.43;9.03;;;;;;;;;;5104713;28;20414;-87
2021/11/05 00:23:13;;;;;;;11.02;9.25;;;;;;;;;;5097264;28;21210;-86
2021/11/05 00:25:40;;;;;;;11.70;9.13;;;;;;;;;;5113790;28;20432;-87
2021/11/05 00:28:07;;;;;;;10.53;8.87;;;;;;;;;;5126531;28;20380;-88
2021/11/05 00:30:35;;;;;;;11.15;9.50;;;;;;;;;;5112439;28;20400;-88
2021/11/05 00:33:02;;;;;;;10.43;8.95;;;;;;;;;;5106378;28;20459;-87
2021/11/05 00:35:29;;;;;;;10.43;8.88;;;;;;;;;;5106076;28;20440;-87
2021/11/05 00:37:56;;;;;;;10.38;8.75;;;;;;;;;;5101910;28;20421;-87
2021/11/05 00:40:25;;;;;;;10.88;9.05;;;;;;;;;;5102404;28;20408;-88
2021/11/05 00:42:52;;;;;;;11.05;8.45;;;;;;;;;;5106469;28;20948;-87
2021/11/05 00:45:19;;;;;;;10.35;8.98;;;;;;;;;;5104433;28;20411;-87
2021/11/05 00:47:47;;;;;;;11.00;8.85;;;;;;;;;;5104536;27;20408;-87
2021/11/05 00:50:14;;;;;;;9.65;8.50;;;;;;;;;;5104219;28;20415;-87
2021/11/05 00:52:41;;;;;;;9.50;8.18;;;;;;;;;;5105364;28;20444;-87
2021/11/05 00:55:08;;;;;;;9.50;8.07;;;;;;;;;;5106307;28;20404;-87
2021/11/05 00:57:35;;;;;;;10.65;8.43;;;;;;;;;;5099033;28;20400;-86
2021/11/05 01:00:03;;;;;;;8.85;7.95;;;;;;;;;;5102804;28;20403;-87
2021/11/05 01:02:30;;;;;;;9.07;8.18;;;;;;;;;;5099525;28;20407;-85
2021/11/05 01:04:59;;;;;;;10.38;8.27;;;;;;;;;;5107640;28;20754;-86
2021/11/05 01:07:25;;;;;;;9.18;8.18;;;;;;;;;;5101427;28;20404;-87
2021/11/05 01:09:52;;;;;;;10.98;8.43;;;;;;;;;;5106292;28;20402;-87
2021/11/05 01:12:20;;;;;;;8.68;7.72;;;;;;;;;;5103359;28;20806;-87
2021/11/05 01:14:47;;;;;;;9.60;8.02;;;;;;;;;;5104669;27;20469;-86
2021/11/05 01:17:14;;;;;;;8.80;7.90;;;;;;;;;;5105229;28;20416;-87
2021/11/05 01:19:41;;;;;;;8.83;7.93;;;;;;;;;;5101498;28;20405;-87
2021/11/05 01:22:11;;;;;;;8.70;7.80;;;;;;;;;;5104806;28;20771;-87
2021/11/05 01:24:38;;;;;;;10.32;7.93;;;;;;;;;;5106847;28;20446;-87
2021/11/05 01:27:06;;;;;;;10.50;8.05;;;;;;;;;;5099240;28;20479;-87
2021/11/05 01:29:33;;;;;;;9.88;7.47;;;;;;;;;;5104933;28;20967;-87
2021/11/05 01:32:00;;;;;;;8.85;7.60;;;;;;;;;;5104749;28;20419;-87
2021/11/05 01:34:27;;;;;;;8.45;7.57;;;;;;;;;;5103385;28;20396;-87
2021/11/05 01:36:54;;;;;;;9.63;7.35;;;;;;;;;;5104162;28;20452;-87
2021/11/05 01:39:23;;;;;;;8.43;7.00;;;;;;;;;;5103007;28;20736;-87
2021/11/05 01:41:50;;;;;;;9.00;7.70;;;;;;;;;;5102808;28;20441;-87
2021/11/05 01:44:17;;;;;;;9.23;7.53;;;;;;;;;;5100329;27;20422;-87
2021/11/05 01:46:43;;;;;;;8.75;7.85;;;;;;;;;;5101627;27;20408;-87
2021/11/05 01:49:12;;;;;;;10.23;8.20;;;;;;;;;;5102988;28;20405;-87
2021/11/05 01:51:40;;;;;;;8.68;7.53;;;;;;;;;;5101546;28;20457;-87
2021/11/05 01:54:10;;;;;;;9.18;7.78;;;;;;;;;;5099445;27;20460;-87
2021/11/05 01:56:39;;;;;;;9.10;7.55;;;;;;;;;;5099674;28;20444;-86
2021/11/05 01:59:06;;;;;;;8.13;7.32;;;;;;;;;;5101521;28;20405;-87
2021/11/05 02:01:34;;;;;;;9.00;7.25;;;;;;;;;;5102802;27;20407;-86
2021/11/05 02:04:01;;;;;;;8.23;7.00;;;;;;;;;;5105520;28;20539;-87
2021/11/05 02:06:29;;;;;;;9.52;7.90;;;;;;;;;;5105542;28;20418;-87
2021/11/05 02:08:58;;;;;;;8.90;8.00;;;;;;;;;;5096482;28;20751;-87
2021/11/05 02:11:25;;;;;;;9.07;7.65;;;;;;;;;;5103237;28;20397;-88
2021/11/05 02:13:56;;;;;;;8.43;7.50;;;;;;;;;;5103788;28;20426;-87
2021/11/05 02:16:23;;;;;;;8.63;7.13;;;;;;;;;;5101897;28;20387;-87
2021/11/05 02:18:51;;;;;;;8.45;7.32;;;;;;;;;;5104708;28;20399;-87
2021/11/05 02:21:22;;;;;;;7.82;7.03;;;;;;;;;;5105483;28;20452;-87
2021/11/05 02:23:51;;;;;;;8.88;7.47;;;;;;;;;;5097908;28;20401;-86
2021/11/05 02:26:17;;;;;;;8.68;7.78;;;;;;;;;;5102290;28;20400;-87
2021/11/05 02:28:44;;;;;;;9.85;8.20;;;;;;;;;;5101941;28;20405;-87
2021/11/05 02:31:11;;;;;;;8.48;7.38;;;;;;;;;;5101262;28;20850;-87
2021/11/05 02:33:38;;;;;;;9.65;7.80;;;;;;;;;;5100242;28;20423;-87
2021/11/05 02:36:05;;;;;;;8.45;7.55;;;;;;;;;;5104711;28;20400;-87
2021/11/05 02:38:32;;;;;;;9.23;7.47;;;;;;;;;;5102078;28;20404;-87
2021/11/05 02:41:00;;;;;;;8.27;7.47;;;;;;;;;;5100776;28;20406;-87
2021/11/05 02:43:27;;;;;;;9.45;7.60;;;;;;;;;;5096796;28;20483;-87
2021/11/05 02:46:04;;;;;;;10.50;8.15;;;;;;;;;;5092739;28;20416;-87
2021/11/05 02:48:32;;;;;;;9.23;7.93;;;;;;;;;;5100884;27;20402;-87
2021/11/05 02:50:59;;;;;;;8.38;7.55;;;;;;;;;;5100775;28;20404;-88
2021/11/05 02:53:26;;;;;;;9.80;7.75;;;;;;;;;;5100374;28;20414;-86
2021/11/05 02:55:53;;;;;;;9.38;7.65;;;;;;;;;;5100268;28;20847;-87
2021/11/05 02:58:22;;;;;;;9.60;7.80;;;;;;;;;;5084703;28;20487;-88
2021/11/05 03:00:49;;;;;;;9.07;7.82;;;;;;;;;;5104868;28;20821;-88
2021/11/05 03:03:17;;;;;;;10.20;8.45;;;;;;;;;;5095552;28;20479;-87
2021/11/05 03:05:44;;;;;;;10.35;8.90;;;;;;;;;;5074128;28;20849;-87
2021/11/05 03:08:14;;;;;;;10.70;9.23;;;;;;;;;;5100451;28;20879;-87
2021/11/05 03:10:42;;;;;;;10.13;8.65;;;;;;;;;;5077163;28;20724;-87
2021/11/05 03:13:35;;;;;;;10.10;9.10;;;;;;;;;;5078234;28;20991;-88
2021/11/05 03:16:14;;;;;;;9.57;8.55;;;;;;;;;;5090473;28;20515;-88
2021/11/05 03:21:38;;;;;;;10.15;8.40;;;;;;;;;;5088510;28;20815;-88
2021/11/05 03:24:06;;;;;;;10.93;8.85;;;;;;;;;;5094359;28;20392;-87
2021/11/05 03:26:45;;;;;;;9.65;7.93;;;;;;;;;;5090416;28;20400;-87
2021/11/05 03:29:12;;;;;;;10.23;8.70;;;;;;;;;;5093920;28;20403;-87
2021/11/05 03:31:49;;;;;;;9.35;8.35;;;;;;;;;;5107515;28;20387;-87
2021/11/05 03:34:19;;;;;;;10.88;8.48;;;;;;;;;;5109153;28;20414;-88
2021/11/05 03:36:52;;;;;;;9.70;8.70;;;;;;;;;;5098882;28;20392;-87
2021/11/05 03:39:19;;;;;;;11.13;8.60;;;;;;;;;;5090565;28;20402;-87
2021/11/05 03:41:46;;;;;;;9.68;8.68;;;;;;;;;;5099578;28;20402;-87
2021/11/05 03:44:20;;;;;;;9.07;8.18;;;;;;;;;;5098667;28;20415;-89
2021/11/05 03:46:48;;;;;;;9.85;8.57;;;;;;;;;;5104895;28;21105;-88
2021/11/05 03:49:16;;;;;;;10.63;8.43;;;;;;;;;;5099312;28;20395;-88
2021/11/05 03:51:52;;;;;;;10.77;9.20;;;;;;;;;;5101653;28;20908;-88
2021/11/05 03:54:24;;;;;;;10.20;9.07;;;;;;;;;;5105151;28;20417;-88
2021/11/05 03:56:51;;;;;;;9.00;8.10;;;;;;;;;;5105091;28;20411;-87
2021/11/05 03:59:18;;;;;;;10.00;8.30;;;;;;;;;;5105953;28;21037;-88
2021/11/05 04:02:05;;;;;;;8.90;8.00;;;;;;;;;;5098884;28;20451;-88
2021/11/05 04:04:31;;;;;;;9.63;8.40;;;;;;;;;;5099870;28;20392;-88
2021/11/05 04:07:04;;;;;;;10.43;7.95;;;;;;;;;;5104231;28;20459;-88
2021/11/05 04:09:35;;;;;;;9.30;8.35;;;;;;;;;;5097347;28;20390;-87
2021/11/05 04:12:02;;;;;;;10.10;7.90;;;;;;;;;;5109231;28;20553;-87
2021/11/05 04:14:29;;;;;;;9.52;8.23;;;;;;;;;;5094491;28;20471;-87
2021/11/05 04:17:05;;;;;;;9.77;8.32;;;;;;;;;;5101821;27;20412;-87
2021/11/05 04:19:32;;;;;;;10.07;7.60;;;;;;;;;;5094250;28;20468;-88
2021/11/05 04:22:06;;;;;;;8.90;8.00;;;;;;;;;;5076353;28;20396;-88
2021/11/05 04:24:33;;;;;;;11.15;8.00;;;;;;;;;;5110340;27;20399;-88
2021/11/05 04:27:00;;;;;;;8.77;7.85;;;;;;;;;;5100196;28;20779;-88
2021/11/05 04:29:36;;;;;;;8.47;7.37;;;;;;;;;;5101127;28;20494;-88
2021/11/05 04:32:10;;;;;;;8.95;7.82;;;;;;;;;;5105601;27;20438;-88
2021/11/05 04:34:39;;;;;;;8.43;7.40;;;;;;;;;;5106443;28;20411;-88
2021/11/05 04:37:09;;;;;;;8.57;6.95;;;;;;;;;;5106755;28;20473;-88
2021/11/05 04:39:36;;;;;;;8.85;7.10;;;;;;;;;;5100152;27;20434;-88
2021/11/05 04:42:08;;;;;;;7.80;7.00;;;;;;;;;;5109025;28;20401;-87
2021/11/05 04:44:35;;;;;;;7.32;6.60;;;;;;;;;;5097767;28;20394;-87
2021/11/05 04:47:02;;;;;;;7.97;6.60;;;;;;;;;;5104924;27;20837;-87
2021/11/05 04:49:30;;;;;;;7.95;6.30;;;;;;;;;;5096255;28;20405;-87
2021/11/05 04:51:57;;;;;;;6.88;6.18;;;;;;;;;;5105606;28;20687;-88
2021/11/05 04:54:24;;;;;;;7.40;6.45;;;;;;;;;;5094015;28;20416;-88
2021/11/05 04:56:51;;;;;;;7.68;6.50;;;;;;;;;;5097149;28;20416;-87
2021/11/05 04:59:19;;;;;;;7.57;6.70;;;;;;;;;;5098506;28;20758;-88
2021/11/05 05:01:46;;;;;;;7.27;6.57;;;;;;;;;;5096886;28;20834;-87
2021/11/05 05:04:13;;;;;;;7.35;6.43;;;;;;;;;;5090010;28;20408;-87
2021/11/05 05:06:41;;;;;;;6.97;6.10;;;;;;;;;;5096792;28;20403;-87
2021/11/05 05:09:08;;;;;;;7.53;6.20;;;;;;;;;;5102549;28;20398;-87
2021/11/05 05:11:35;;;;;;;6.72;5.90;;;;;;;;;;5105301;28;20399;-87
2021/11/05 05:14:02;;;;;;;7.25;6.28;;;;;;;;;;5101841;28;20767;-87
2021/11/05 05:16:29;;;;;;;7.22;6.43;;;;;;;;;;5101656;27;20402;-87
2021/11/05 05:18:56;;;;;;;7.75;6.75;;;;;;;;;;5102390;28;20406;-87
2021/11/05 05:21:23;;;;;;;7.68;6.38;;;;;;;;;;5104916;28;20395;-87
2021/11/05 05:23:53;;;;;;;8.32;6.60;;;;;;;;;;5105790;28;20468;-86
2021/11/05 05:26:20;;;;;;;8.15;6.15;;;;;;;;;;5103528;28;20442;-87
2021/11/05 05:28:48;;;;;;;6.45;5.80;;;;;;;;;;5103172;28;20398;-87
2021/11/05 05:31:15;;;;;;;8.20;6.43;;;;;;;;;;5102034;28;20886;-87
2021/11/05 05:33:42;;;;;;;8.55;6.40;;;;;;;;;;5104024;28;20425;-87
2021/11/05 05:36:10;;;;;;;7.53;6.38;;;;;;;;;;5102763;28;20660;-87
2021/11/05 05:38:37;;;;;;;7.33;6.57;;;;;;;;;;5100767;28;20759;-88
2021/11/05 05:41:06;;;;;;;7.85;5.90;;;;;;;;;;5104190;28;20401;-87
2021/11/05 05:43:34;;;;;;;6.90;6.00;;;;;;;;;;5096541;28;20882;-87
2021/11/05 05:46:01;;;;;;;7.97;5.82;;;;;;;;;;5102489;27;20493;-88
2021/11/05 05:48:28;;;;;;;8.00;6.23;;;;;;;;;;5104232;28;20761;-85
2021/11/05 05:50:55;;;;;;;6.50;5.80;;;;;;;;;;5101071;28;20411;-87
2021/11/05 05:53:22;;;;;;;7.40;6.25;;;;;;;;;;5104309;28;20421;-88
2021/11/05 05:55:49;;;;;;;7.57;6.28;;;;;;;;;;5102077;28;20416;-88
2021/11/05 05:58:17;;;;;;;8.65;6.60;;;;;;;;;;5100227;28;20402;-88
2021/11/05 06:00:47;;;;;;;7.82;6.18;;;;;;;;;;5106082;28;20479;-87
2021/11/05 06:03:15;;;;;;;8.38;6.53;;;;;;;;;;5099046;28;20533;-88
2021/11/05 06:05:42;;;;;;;8.55;6.40;;;;;;;;;;5103209;28;20814;-88
2021/11/05 06:08:09;;;;;;;7.60;6.20;;;;;;;;;;5103156;28;20402;-87
2021/11/05 06:10:36;;;;;;;7.40;6.20;;;;;;;;;;5097038;28;20744;-87
2021/11/05 06:13:03;;;;;;;7.38;6.05;;;;;;;;;;5101650;28;20406;-87
2021/11/05 06:15:32;;;;;;;7.10;6.40;;;;;;;;;;5102081;28;20433;-87
2021/11/05 06:17:58;;;;;;;9.20;6.78;;;;;;;;;;5098793;28;20947;-87
2021/11/05 06:20:26;;;;;;;9.43;6.10;;;;;;;;;;5096342;28;20453;-87
2021/11/05 06:22:53;;;;;;;7.57;6.30;;;;;;;;;;5095828;28;20469;-87
2021/11/05 06:25:20;;;;;;;7.30;6.20;;;;;;;;;;5094190;28;20842;-87
2021/11/05 06:27:47;;;;;;;7.97;6.55;;;;;;;;;;5105684;27;20411;-89
2021/11/05 06:30:15;;;;;;;7.63;6.10;;;;;;;;;;5117527;28;20410;-89
2021/11/05 06:32:43;;;;;;;7.97;6.55;;;;;;;;;;5124486;27;20841;-86
2021/11/05 06:35:12;;;;;;;7.78;6.63;;;;;;;;;;5098912;28;20774;-86
2021/11/05 06:37:39;;;;;;;7.72;6.45;;;;;;;;;;5098607;28;20414;-85
2021/11/05 06:40:10;;;;;;;8.95;6.70;;;;;;;;;;5097538;28;20397;-86
2021/11/05 06:42:36;;;;;;;8.38;6.70;;;;;;;;;;5096985;28;20406;-86
2021/11/05 06:45:04;;;;;;;7.53;6.60;;;;;;;;;;5101256;28;20449;-87
2021/11/05 06:47:31;;;;;;;9.35;7.03;;;;;;;;;;5100815;28;20399;-86
2021/11/05 06:49:59;;;;;;;8.43;6.70;;;;;;;;;;5096264;28;20417;-87
2021/11/05 06:52:26;;;;;;;8.80;6.60;;;;;;;;;;5101155;28;20412;-87
2021/11/05 06:54:54;;;;;;;7.57;6.32;;;;;;;;;;5096824;28;20535;-86
2021/11/05 06:57:22;;;;;;;9.23;7.18;;;;;;;;;;5101055;28;20878;-87
2021/11/05 06:59:49;;;;;;;9.02;7.20;;;;;;;;;;5098139;28;20503;-86
2021/11/05 07:02:16;;;;;;;8.20;6.40;;;;;;;;;;5096659;28;20407;-87
2021/11/05 07:04:43;;;;;;;7.80;6.53;;;;;;;;;;5099594;28;20401;-86
2021/11/05 07:07:11;;;;;;;8.75;6.63;;;;;;;;;;5098047;28;20434;-86
2021/11/05 07:09:38;;;;;;;8.52;6.90;;;;;;;;;;5095427;28;20426;-86
2021/11/05 07:12:06;;;;;;;10.18;7.38;;;;;;;;;;5096584;28;20889;-87
2021/11/05 07:14:45;;;;;;;8.37;7.10;;;;;;;;;;5095543;27;20865;-86
2021/11/05 07:17:12;;;;;;;8.70;6.80;;;;;;;;;;5098039;28;20466;-87
2021/11/05 07:19:39;;;;;;;7.75;6.45;;;;;;;;;;5101354;28;20399;-87
2021/11/05 07:22:06;;;;;;;9.07;7.20;;;;;;;;;;5101457;28;20403;-87
2021/11/05 07:24:36;;;;;;;8.57;6.50;;;;;;;;;;5099132;28;20414;-87
2021/11/05 07:27:04;;;;;;;8.95;6.60;;;;;;;;;;5101231;28;20406;-87
2021/11/05 07:29:32;;;;;;;7.72;6.28;;;;;;;;;;5105019;28;20888;-87
2021/11/05 07:32:00;;;;;;;7.90;6.15;;;;;;;;;;5097568;28;20408;-87
2021/11/05 07:34:30;;;;;;;8.82;5.80;;;;;;;;;;5104829;28;20419;-87
2021/11/05 07:36:57;;;;;;;7.45;5.75;;;;;;;;;;5107820;28;20502;-88
2021/11/05 07:39:24;;;;;;;9.40;5.78;;;;;;;;;;5109113;28;20398;-87
2021/11/05 07:41:53;;;;;;;8.48;5.50;;;;;;;;;;5101538;28;20401;-87
2021/11/05 07:44:20;;;;;;;7.18;6.00;;;;;;;;;;5097570;28;20763;-86
2021/11/05 07:46:47;;;;;;;8.23;5.68;;;;;;;;;;5106056;28;20399;-87
2021/11/05 07:49:14;;;;;;;7.20;6.30;;;;;;;;;;5106599;28;20453;-87
2021/11/05 07:51:41;;;;;;;8.77;6.00;;;;;;;;;;5103709;28;20409;-87
2021/11/05 07:54:08;;;;;;;9.50;5.55;;;;;;;;;;5102677;28;20423;-87
2021/11/05 07:56:36;;;;;;;6.65;5.43;;;;;;;;;;5105297;28;20406;-88
2021/11/05 07:59:06;;;;;;;7.95;5.72;;;;;;;;;;5102309;28;20801;-87
2021/11/05 08:01:33;;;;;;;7.30;5.57;;;;;;;;;;5099134;28;20454;-87
2021/11/05 08:04:01;;;;;;;8.48;5.45;;;;;;;;;;5107799;28;20401;-87
2021/11/05 08:06:27;;;;;;;7.15;5.63;;;;;;;;;;5101674;28;20397;-87
2021/11/05 08:08:54;;;;;;;6.57;5.10;;;;;;;;;;5105029;28;20870;-87
2021/11/05 08:11:22;;;;;;;5.80;5.15;;;;;;;;;;5109035;28;20402;-87
2021/11/05 08:13:49;;;;;;;5.43;4.63;;;;;;;;;;5107212;28;20513;-87
2021/11/05 08:16:18;;;;;;;6.80;4.32;;;;;;;;;;5097304;27;20932;-87
2021/11/05 08:18:45;;;;;;;4.80;4.13;;;;;;;;;;5106260;28;20413;-87
2021/11/05 08:21:12;;;;;;;5.80;4.88;;;;;;;;;;5108195;28;20398;-87
2021/11/05 08:23:39;;;;;;;5.15;4.63;;;;;;;;;;5107560;28;20403;-87
2021/11/05 08:26:06;;;;;;;6.30;4.47;;;;;;;;;;5102519;28;20456;-88
2021/11/05 08:28:33;;;;;;;7.95;4.53;;;;;;;;;;5103183;28;20676;-87
2021/11/05 08:31:01;;;;;;;6.75;4.03;;;;;;;;;;5086548;28;20758;-87
2021/11/05 08:33:29;;;;;;;6.22;3.55;;;;;;;;;;5108331;27;20407;-87
2021/11/05 08:35:56;;;;;;;4.78;3.67;;;;;;;;;;5106736;28;20794;-88
2021/11/05 08:38:25;;;;;;;4.13;2.95;;;;;;;;;;5100139;28;20763;-88
2021/11/05 08:40:53;;;;;;;3.40;3.10;;;;;;;;;;5105498;28;20404;-87
2021/11/05 08:43:22;;;;;;;3.28;2.80;;;;;;;;;;5106765;28;20410;-87
2021/11/05 08:45:49;;;;;;;3.80;2.70;;;;;;;;;;5098347;28;21136;-87
2021/11/05 08:48:17;;;;;;;4.53;2.40;;;;;;;;;;5099234;27;20562;-87
2021/11/05 08:50:45;;;;;;;2.83;2.20;;;;;;;;;;5095294;28;20903;-88
2021/11/05 08:53:12;;;;;;;2.60;2.40;;;;;;;;;;5084882;28;20776;-87
2021/11/05 08:55:39;;;;;;;2.55;2.35;;;;;;;;;;5087179;28;20776;-87
2021/11/05 08:58:07;;;;;;;3.25;2.70;;;;;;;;;;5084142;28;20396;-87
2021/11/05 09:00:34;;;;;;;4.23;2.70;;;;;;;;;;5084408;28;20397;-88
2021/11/05 09:03:03;;;;;;;3.38;2.40;;;;;;;;;;5083193;28;20404;-88
2021/11/05 09:05:30;;;;;;;3.20;2.72;;;;;;;;;;5076909;28;20414;-88
2021/11/05 09:07:58;;;;;;;3.03;2.72;;;;;;;;;;5081098;28;20408;-88
2021/11/05 09:10:25;;;;;;;4.30;2.80;;;;;;;;;;5078713;28;20408;-88
2021/11/05 09:12:52;;;;;;;2.93;2.63;;;;;;;;;;5079118;28;20400;-89
2021/11/05 09:15:22;;;;;;;2.90;2.70;;;;;;;;;;5078620;28;20416;-87
2021/11/05 09:17:52;;;;;;;2.92;2.63;;;;;;;;;;5075048;28;20953;-88
2021/11/05 09:20:19;;;;;;;3.47;2.95;;;;;;;;;;5078744;28;20404;-87
2021/11/05 09:22:46;;;;;;;4.22;2.95;;;;;;;;;;5085235;28;20408;-85
2021/11/05 09:25:14;;;;;;;4.03;3.03;;;;;;;;;;5081487;28;20404;-87
2021/11/05 09:27:43;;;;;;;3.20;2.63;;;;;;;;;;5083801;28;20870;-85
2021/11/05 09:30:12;;;;;;;3.40;2.83;;;;;;;;;;5082493;28;20401;-86
2021/11/05 09:32:39;;;;;;;4.30;2.77;;;;;;;;;;5074861;28;20500;-85
2021/11/05 09:35:07;;;;;;;3.10;2.63;;;;;;;;;;5085218;28;20435;-86
2021/11/05 09:37:35;;;;;;;3.13;2.30;;;;;;;;;;5080211;28;20444;-86
2021/11/05 09:40:02;;;;;;;3.45;2.33;;;;;;;;;;5077480;28;20822;-85
2021/11/05 09:42:32;;;;;;;3.45;2.53;;;;;;;;;;5079928;28;20755;-85
2021/11/05 09:44:59;;;;;;;3.28;2.55;;;;;;;;;;5078599;28;20415;-86
2021/11/05 09:47:28;;;;;;;3.45;2.35;;;;;;;;;;5080677;28;20435;-86
2021/11/05 09:49:54;;;;;;;3.80;2.55;;;;;;;;;;5083931;28;20409;-86
2021/11/05 09:52:21;;;;;;;2.57;2.10;;;;;;;;;;5088610;28;20408;-87
2021/11/05 09:54:50;;;;;;;3.70;2.20;;;;;;;;;;5098585;28;20942;-86
2021/11/05 09:57:17;;;;;;;2.23;1.90;;;;;;;;;;5104970;28;20395;-86
2021/11/05 09:59:46;;;;;;;2.83;2.13;;;;;;;;;;5099582;28;20393;-86
2021/11/05 10:02:14;;;;;;;3.90;1.98;;;;;;;;;;5121641;28;20399;-87
2021/11/05 10:04:42;;;;;;;2.55;2.00;;;;;;;;;;5117659;28;20406;-86
2021/11/05 10:07:11;;;;;;;2.10;1.40;;;;;;;;;;5095406;28;20407;-85
2021/11/05 10:09:39;;;;;;;1.20;0.93;;;;;;;;;;5100048;28;20406;-85
2021/11/05 10:12:08;;;;;;;1.35;1.00;;;;;;;;;;5104084;28;20402;-84
2021/11/05 10:14:35;;;;;;;0.93;0.60;;;;;;;;;;5102119;28;20407;-85
2021/11/05 10:17:06;;;;;;;0.90;0.65;;;;;;;;;;5099839;27;20401;-85
2021/11/05 10:19:50;;;;;;;2.60;0.73;;;;;;;;;;5092691;28;20412;-85
2021/11/05 10:22:42;;;;;;;1.23;0.80;;;;;;;;;;5094769;28;20410;-85
2021/11/05 10:25:24;;;;;;;3.20;0.70;;;;;;;;;;5101773;28;20398;-84
2021/11/05 10:28:06;;;;;;;2.10;0.80;;;;;;;;;;5099549;28;20409;-85
2021/11/05 10:30:34;;;;;;;2.38;0.90;;;;;;;;;;5096030;28;22030;-85
2021/11/05 10:33:04;;;;;;;1.98;1.00;;;;;;;;;;5097579;28;20411;-85
2021/11/05 10:35:32;;;;;;;2.30;1.13;;;;;;;;;;5095871;28;20414;-84
2021/11/05 10:38:03;;;;;;;1.52;0.80;;;;;;;;;;5097549;28;20416;-86
2021/11/05 10:40:34;;;;;;;1.25;0.75;;;;;;;;;;5099284;28;20406;-86
2021/11/05 10:43:01;;;;;;;1.10;0.85;;;;;;;;;;5105287;28;20391;-85
2021/11/05 10:45:28;;;;;;;1.42;0.77;;;;;;;;;;5102030;28;20413;-86
2021/11/05 10:48:06;;;;;;;1.30;0.90;;;;;;;;;;5101124;28;20398;-86
2021/11/05 10:50:37;;;;;;;1.58;0.93;;;;;;;;;;5096818;28;20395;-86
2021/11/05 10:53:07;;;;;;;2.40;1.05;;;;;;;;;;5095838;28;20402;-86
2021/11/05 10:55:42;;;;;;;1.70;0.90;;;;;;;;;;5096286;28;20522;-86
2021/11/05 10:58:14;;;;;;;1.60;1.17;;;;;;;;;;5095659;28;20905;-84
2021/11/05 11:00:42;;;;;;;2.22;0.90;;;;;;;;;;5101906;28;20403;-86
2021/11/05 11:03:13;;;;;;;1.92;1.20;;;;;;;;;;5099982;28;20913;-85
2021/11/05 11:05:42;;;;;;;1.88;1.20;;;;;;;;;;5098758;28;20405;-85
2021/11/05 11:08:17;;;;;;;2.63;1.20;;;;;;;;;;5100623;28;20766;-86
2021/11/05 11:10:44;;;;;;;1.15;1.05;;;;;;;;;;5091256;28;20394;-86
2021/11/05 11:13:31;;;;;;;1.80;1.17;;;;;;;;;;5102198;28;20894;-86
2021/11/05 11:15:58;;;;;;;1.53;1.10;;;;;;;;;;5095699;28;20897;-86
2021/11/05 11:18:27;;;;;;;1.65;1.17;;;;;;;;;;5100753;28;20403;-86
2021/11/05 11:20:54;;;;;;;2.83;1.00;;;;;;;;;;5101178;28;20409;-86
2021/11/05 11:23:21;;;;;;;1.30;0.90;;;;;;;;;;5101942;28;20598;-85
2021/11/05 11:25:49;;;;;;;1.40;1.20;;;;;;;;;;5103878;28;20402;-86
2021/11/05 11:28:16;;;;;;;2.70;1.20;;;;;;;;;;5099918;28;20386;-85
2021/11/05 11:30:43;;;;;;;3.13;1.10;;;;;;;;;;5099788;28;20412;-86
2021/11/05 11:33:13;;;;;;;2.38;1.23;;;;;;;;;;5095691;28;20414;-85
2021/11/05 11:35:50;;;;;;;2.78;1.30;;;;;;;;;;5099572;28;20433;-82
2021/11/05 11:38:20;;;;;;;3.47;1.13;;;;;;;;;;5096280;28;20403;-83
2021/11/05 11:40:49;;;;;;;2.13;1.20;;;;;;;;;;5097135;28;20431;-84
2021/11/05 11:43:24;;;;;;;2.00;1.08;;;;;;;;;;5087976;28;20423;-84
2021/11/05 11:45:53;;;;;;;2.85;0.93;;;;;;;;;;5088948;28;20403;-86
2021/11/05 11:48:41;;;;;;;1.77;0.82;;;;;;;;;;5099069;28;20808;-84
2021/11/05 11:51:23;;;;;;;1.30;0.90;;;;;;;;;;5104702;28;20599;-85
2021/11/05 11:53:52;;;;;;;1.80;0.70;;;;;;;;;;5102309;28;20438;-83
2021/11/05 11:56:35;;;;;;;2.13;0.75;;;;;;;;;;5096859;28;21156;-85
2021/11/05 11:59:04;;;;;;;1.90;0.70;;;;;;;;;;5101936;28;20874;-85
2021/11/05 12:01:35;;;;;;;1.92;0.70;;;;;;;;;;5101454;28;20862;-83
2021/11/05 12:04:05;;;;;;;1.70;0.90;;;;;;;;;;5096769;28;20492;-84
2021/11/05 12:07:02;;;;;;;1.48;1.00;;;;;;;;;;5095776;28;20941;-84
2021/11/05 12:09:32;;;;;;;4.47;0.85;;;;;;;;;;5093560;28;20401;-85
2021/11/05 12:12:31;;;;;;;2.00;0.90;;;;;;;;;;5086463;28;20749;-87
2021/11/05 12:15:24;;;;;;;2.70;0.97;;;;;;;;;;5096530;28;20552;-85
2021/11/05 12:18:11;;;;;;;1.80;0.90;;;;;;;;;;5095649;28;20961;-88
2021/11/05 12:20:44;;;;;;;2.65;0.70;;;;;;;;;;5095747;28;20472;-88
2021/11/05 12:23:22;;;;;;;2.97;0.93;;;;;;;;;;5093316;28;20928;-88
2021/11/05 12:25:56;;;;;;;1.13;0.70;;;;;;;;;;5090685;28;20396;-89
2021/11/05 12:28:26;;;;;;;2.53;0.93;;;;;;;;;;5103372;28;20411;-88
2021/11/05 12:30:55;;;;;;;2.25;0.85;;;;;;;;;;5096918;28;20418;-88
2021/11/05 12:33:29;;;;;;;2.15;0.90;;;;;;;;;;5093358;28;20400;-88
2021/11/05 12:35:57;;;;;;;4.10;1.00;;;;;;;;;;5104543;28;20444;-87
2021/11/05 12:38:25;;;;;;;2.25;0.75;;;;;;;;;;5104390;28;20910;-85
2021/11/05 12:40:59;;;;;;;1.73;0.77;;;;;;;;;;5103562;28;20409;-85
2021/11/05 12:43:40;;;;;;;8.57;3.72;;;;;;;;;;5100396;28;20401;-87
2021/11/05 12:46:10;;;;;;;2.78;1.33;;;;;;;;;;5106361;28;20498;-85
2021/11/05 12:48:52;;;;;;;7.18;3.45;;;;;;;;;;5101401;28;20538;-85
2021/11/05 12:51:22;;;;;;;1.83;0.75;;;;;;;;;;5101214;28;20413;-86
2021/11/05 12:54:02;;;;;;;2.85;1.00;;;;;;;;;;5101126;28;20418;-86
2021/11/05 12:56:30;;;;;;;2.88;0.70;;;;;;;;;;5097666;28;20821;-86
2021/11/05 12:58:57;;;;;;;1.83;0.90;;;;;;;;;;5099507;28;20890;-87
2021/11/05 13:01:26;;;;;;;3.15;0.70;;;;;;;;;;5096967;28;20403;-86
2021/11/05 13:04:14;;;;;;;4.90;0.90;;;;;;;;;;5098022;28;20536;-86
2021/11/05 13:06:51;;;;;;;3.00;0.83;;;;;;;;;;5097733;28;20498;-88
2021/11/05 13:09:28;;;;;;;2.70;0.90;;;;;;;;;;5094553;28;20438;-88
2021/11/05 13:12:00;;;;;;;2.38;0.60;;;;;;;;;;5098821;27;20413;-89
2021/11/05 13:14:46;;;;;;;3.97;0.88;;;;;;;;;;5097028;28;20410;-88
2021/11/05 13:17:14;;;;;;;3.30;0.77;;;;;;;;;;5096225;28;20420;-88
2021/11/05 13:19:46;;;;;;;3.30;0.70;;;;;;;;;;5102882;28;20390;-88
2021/11/05 13:22:13;;;;;;;2.95;0.77;;;;;;;;;;5096681;28;21597;-86
2021/11/05 13:24:41;;;;;;;2.50;0.88;;;;;;;;;;5101822;27;20774;-88
2021/11/05 13:27:09;;;;;;;2.23;0.90;;;;;;;;;;5101769;28;20438;-88
2021/11/05 13:29:36;;;;;;;3.47;1.20;;;;;;;;;;5103216;28;20416;-87
2021/11/05 13:32:14;;;;;;;4.30;1.10;;;;;;;;;;5100946;27;20441;-87
2021/11/05 13:34:42;;;;;;;4.47;1.15;;;;;;;;;;5100074;28;21212;-88
2021/11/05 13:37:15;;;;;;;3.50;1.10;;;;;;;;;;5097729;27;20422;-88
2021/11/05 13:39:44;;;;;;;4.05;1.20;;;;;;;;;;5100581;28;20406;-88
2021/11/05 13:42:13;;;;;;;4.97;1.10;;;;;;;;;;5097883;28;20414;-87
2021/11/05 13:44:40;;;;;;;2.83;1.07;;;;;;;;;;5098261;28;20803;-87
2021/11/05 13:47:15;;;;;;;3.83;1.05;;;;;;;;;;5104668;27;20403;-88
2021/11/05 13:49:43;;;;;;;3.15;1.00;;;;;;;;;;5101682;28;20426;-86
2021/11/05 13:52:10;;;;;;;4.38;1.10;;;;;;;;;;5099772;28;20771;-86
2021/11/05 13:54:46;;;;;;;3.83;1.10;;;;;;;;;;5102101;28;20399;-85
2021/11/05 13:57:17;;;;;;;3.13;1.15;;;;;;;;;;5100894;27;20423;-88
2021/11/05 13:59:50;;;;;;;3.75;1.15;;;;;;;;;;5104665;28;20412;-87
2021/11/05 14:02:17;;;;;;;3.33;1.03;;;;;;;;;;5102601;28;20406;-86
2021/11/05 14:04:45;;;;;;;3.47;1.00;;;;;;;;;;5104294;28;20495;-87
2021/11/05 14:07:13;;;;;;;3.35;0.90;;;;;;;;;;5105368;28;20398;-87
2021/11/05 14:09:40;;;;;;;6.07;1.07;;;;;;;;;;5096250;28;20420;-87
2021/11/05 14:12:17;;;;;;;2.88;1.00;;;;;;;;;;5101713;28;20399;-87
2021/11/05 14:14:49;;;;;;;3.72;1.00;;;;;;;;;;5103490;28;20395;-86
2021/11/05 14:17:19;;;;;;;4.75;1.13;;;;;;;;;;5104830;28;20540;-87
2021/11/05 14:19:54;;;;;;;4.93;1.20;;;;;;;;;;5103206;28;20430;-87
2021/11/05 14:22:23;;;;;;;3.67;1.20;;;;;;;;;;5103904;28;20411;-87
2021/11/05 14:24:52;;;;;;;4.65;1.30;;;;;;;;;;5098199;28;20394;-87
2021/11/05 14:27:27;;;;;;;6.50;1.20;;;;;;;;;;5105015;28;20876;-87
2021/11/05 14:29:56;;;;;;;4.57;1.70;;;;;;;;;;5100865;28;20502;-87
2021/11/05 14:32:32;;;;;;;5.40;1.50;;;;;;;;;;5100461;28;20419;-87
2021/11/05 14:35:01;;;;;;;4.63;1.77;;;;;;;;;;5105172;28;20772;-85
2021/11/05 14:37:29;;;;;;;4.90;1.23;;;;;;;;;;5102399;28;20450;-85
2021/11/05 14:40:00;;;;;;;5.75;1.95;;;;;;;;;;5101998;28;20391;-84
2021/11/05 14:42:31;;;;;;;7.28;3.03;;;;;;;;;;5091584;28;20400;-85
2021/11/05 14:45:00;;;;;;;5.57;1.80;;;;;;;;;;5094486;28;20947;-84
2021/11/05 14:47:28;;;;;;;7.35;2.60;;;;;;;;;;5094224;27;20919;-84
2021/11/05 14:50:23;;;;;;;4.05;1.70;;;;;;;;;;5093061;28;20907;-85
2021/11/05 14:52:54;;;;;;;5.70;1.50;;;;;;;;;;5076718;28;20411;-85
2021/11/05 14:55:21;;;;;;;6.22;1.55;;;;;;;;;;5114204;28;20411;-87
2021/11/05 14:57:51;;;;;;;5.38;1.70;;;;;;;;;;5122666;28;20421;-84